sensor_id;sensor_type;location;lat;lon;timestamp;P1;durP1;ratioP1;P2;durP2;ratioP2
19251;SDS011;9760;50.944;5.304;2023-01-08T00:01:04;6.20;;;2.43;;
19251;SDS011;9760;50.944;5.304;2023-01-08T00:03:32;6.33;;;1.87;;
19251;SDS011;9760;50.944;5.304;2023-01-08T00:06:04;6.87;;;2.23;;
19251;SDS011;9760;50.944;5.304;2023-01-08T00:08:32;5.57;;;2.60;;
19251;SDS011;9760;50.944;5.304;2023-01-08T00:10:58;9.20;;;2.37;;
19251;SDS011;9760;50.944;5.304;2023-01-08T00:13:24;6.57;;;2.97;;
19251;SDS011;9760;50.944;5.304;2023-01-08T00:15:50;4.63;;;2.07;;
19251;SDS011;9760;50.944;5.304;2023-01-08T00:18:16;8.57;;;2.20;;
19251;SDS011;9760;50.944;5.304;2023-01-08T00:20:42;6.70;;;2.30;;
19251;SDS011;9760;50.944;5.304;2023-01-08T00:23:12;11.47;;;2.63;;
19251;SDS011;9760;50.944;5.304;2023-01-08T00:25:43;7.00;;;2.37;;
19251;SDS011;9760;50.944;5.304;2023-01-08T00:28:09;5.50;;;2.50;;
19251;SDS011;9760;50.944;5.304;2023-01-08T00:30:35;9.43;;;2.60;;
19251;SDS011;9760;50.944;5.304;2023-01-08T00:33:01;5.20;;;2.37;;
19251;SDS011;9760;50.944;5.304;2023-01-08T00:35:27;6.50;;;2.30;;
19251;SDS011;9760;50.944;5.304;2023-01-08T00:37:52;7.43;;;2.50;;
19251;SDS011;9760;50.944;5.304;2023-01-08T00:40:18;7.60;;;2.23;;
19251;SDS011;9760;50.944;5.304;2023-01-08T00:42:43;4.90;;;2.53;;
19251;SDS011;9760;50.944;5.304;2023-01-08T00:45:09;6.30;;;2.30;;
19251;SDS011;9760;50.944;5.304;2023-01-08T00:47:35;6.07;;;2.50;;
19251;SDS011;9760;50.944;5.304;2023-01-08T00:50:00;6.73;;;2.40;;
19251;SDS011;9760;50.944;5.304;2023-01-08T00:52:26;4.50;;;2.30;;
19251;SDS011;9760;50.944;5.304;2023-01-08T00:54:52;6.00;;;2.60;;
19251;SDS011;9760;50.944;5.304;2023-01-08T00:57:17;5.03;;;2.30;;
19251;SDS011;9760;50.944;5.304;2023-01-08T00:59:43;5.43;;;2.30;;
19251;SDS011;9760;50.944;5.304;2023-01-08T01:02:09;5.17;;;2.50;;
19251;SDS011;9760;50.944;5.304;2023-01-08T01:04:34;6.13;;;2.20;;
19251;SDS011;9760;50.944;5.304;2023-01-08T01:07:00;4.97;;;2.50;;
19251;SDS011;9760;50.944;5.304;2023-01-08T01:09:26;4.80;;;2.40;;
19251;SDS011;9760;50.944;5.304;2023-01-08T01:11:51;3.97;;;2.10;;
19251;SDS011;9760;50.944;5.304;2023-01-08T01:14:17;5.53;;;2.30;;
19251;SDS011;9760;50.944;5.304;2023-01-08T01:16:43;6.33;;;2.37;;
19251;SDS011;9760;50.944;5.304;2023-01-08T01:19:08;4.77;;;2.23;;
19251;SDS011;9760;50.944;5.304;2023-01-08T01:21:37;5.60;;;2.20;;
19251;SDS011;9760;50.944;5.304;2023-01-08T01:24:04;4.33;;;1.93;;
19251;SDS011;9760;50.944;5.304;2023-01-08T01:26:31;4.90;;;2.43;;
19251;SDS011;9760;50.944;5.304;2023-01-08T01:28:58;2.90;;;2.10;;
19251;SDS011;9760;50.944;5.304;2023-01-08T01:31:25;3.40;;;1.90;;
19251;SDS011;9760;50.944;5.304;2023-01-08T01:33:52;4.00;;;2.20;;
19251;SDS011;9760;50.944;5.304;2023-01-08T01:36:18;6.87;;;1.80;;
19251;SDS011;9760;50.944;5.304;2023-01-08T01:38:48;3.23;;;2.17;;
19251;SDS011;9760;50.944;5.304;2023-01-08T01:41:17;8.73;;;2.00;;
19251;SDS011;9760;50.944;5.304;2023-01-08T01:43:51;6.67;;;2.03;;
19251;SDS011;9760;50.944;5.304;2023-01-08T01:48:59;5.83;;;1.87;;
19251;SDS011;9760;50.944;5.304;2023-01-08T01:51:32;6.77;;;1.90;;
19251;SDS011;9760;50.944;5.304;2023-01-08T01:54:00;3.67;;;2.40;;
19251;SDS011;9760;50.944;5.304;2023-01-08T01:56:27;5.17;;;2.07;;
19251;SDS011;9760;50.944;5.304;2023-01-08T01:58:54;5.20;;;2.07;;
19251;SDS011;9760;50.944;5.304;2023-01-08T02:01:20;5.67;;;1.93;;
19251;SDS011;9760;50.944;5.304;2023-01-08T02:03:47;7.60;;;1.83;;
19251;SDS011;9760;50.944;5.304;2023-01-08T02:17:51;5.17;;;2.20;;
19251;SDS011;9760;50.944;5.304;2023-01-08T02:20:31;7.23;;;2.07;;
19251;SDS011;9760;50.944;5.304;2023-01-08T02:23:13;3.60;;;1.70;;
19251;SDS011;9760;50.944;5.304;2023-01-08T02:26:01;4.53;;;1.53;;
19251;SDS011;9760;50.944;5.304;2023-01-08T02:28:59;5.47;;;1.50;;
19251;SDS011;9760;50.944;5.304;2023-01-08T02:31:34;5.33;;;1.80;;
19251;SDS011;9760;50.944;5.304;2023-01-08T02:34:03;4.77;;;1.80;;
19251;SDS011;9760;50.944;5.304;2023-01-08T02:36:30;5.17;;;1.80;;
19251;SDS011;9760;50.944;5.304;2023-01-08T02:39:05;4.23;;;1.80;;
19251;SDS011;9760;50.944;5.304;2023-01-08T02:47:13;3.53;;;1.83;;
19251;SDS011;9760;50.944;5.304;2023-01-08T02:49:56;4.53;;;1.83;;
19251;SDS011;9760;50.944;5.304;2023-01-08T02:55:57;6.47;;;1.93;;
19251;SDS011;9760;50.944;5.304;2023-01-08T02:58:35;3.57;;;2.03;;
19251;SDS011;9760;50.944;5.304;2023-01-08T03:01:03;4.43;;;1.60;;
19251;SDS011;9760;50.944;5.304;2023-01-08T03:03:32;3.93;;;1.80;;
19251;SDS011;9760;50.944;5.304;2023-01-08T03:06:00;3.70;;;1.80;;
19251;SDS011;9760;50.944;5.304;2023-01-08T03:08:30;5.30;;;1.60;;
19251;SDS011;9760;50.944;5.304;2023-01-08T03:11:05;2.47;;;1.67;;
19251;SDS011;9760;50.944;5.304;2023-01-08T03:16:48;3.43;;;1.57;;
19251;SDS011;9760;50.944;5.304;2023-01-08T03:19:25;5.13;;;1.67;;
19251;SDS011;9760;50.944;5.304;2023-01-08T03:21:59;6.80;;;1.77;;
19251;SDS011;9760;50.944;5.304;2023-01-08T03:24:28;3.33;;;1.60;;
19251;SDS011;9760;50.944;5.304;2023-01-08T03:26:58;4.33;;;1.80;;
19251;SDS011;9760;50.944;5.304;2023-01-08T03:29:27;2.70;;;1.40;;
19251;SDS011;9760;50.944;5.304;2023-01-08T03:31:55;3.97;;;1.90;;
19251;SDS011;9760;50.944;5.304;2023-01-08T03:34:25;2.03;;;1.53;;
19251;SDS011;9760;50.944;5.304;2023-01-08T03:36:52;4.37;;;1.30;;
19251;SDS011;9760;50.944;5.304;2023-01-08T03:39:23;4.87;;;1.57;;
19251;SDS011;9760;50.944;5.304;2023-01-08T03:41:54;2.50;;;1.10;;
19251;SDS011;9760;50.944;5.304;2023-01-08T03:44:23;1.50;;;1.30;;
19251;SDS011;9760;50.944;5.304;2023-01-08T03:46:49;1.93;;;1.23;;
19251;SDS011;9760;50.944;5.304;2023-01-08T03:49:18;2.80;;;1.07;;
19251;SDS011;9760;50.944;5.304;2023-01-08T03:51:47;6.50;;;1.60;;
19251;SDS011;9760;50.944;5.304;2023-01-08T03:54:14;4.27;;;1.70;;
19251;SDS011;9760;50.944;5.304;2023-01-08T03:56:42;4.37;;;1.67;;
19251;SDS011;9760;50.944;5.304;2023-01-08T03:59:09;6.63;;;1.77;;
19251;SDS011;9760;50.944;5.304;2023-01-08T04:01:35;3.03;;;1.40;;
19251;SDS011;9760;50.944;5.304;2023-01-08T04:04:01;4.37;;;1.63;;
19251;SDS011;9760;50.944;5.304;2023-01-08T04:06:27;5.73;;;1.80;;
19251;SDS011;9760;50.944;5.304;2023-01-08T04:08:52;6.30;;;1.60;;
19251;SDS011;9760;50.944;5.304;2023-01-08T04:11:18;3.50;;;1.40;;
19251;SDS011;9760;50.944;5.304;2023-01-08T04:13:43;3.00;;;1.23;;
19251;SDS011;9760;50.944;5.304;2023-01-08T04:16:09;4.77;;;1.00;;
19251;SDS011;9760;50.944;5.304;2023-01-08T04:18:35;6.63;;;1.40;;
19251;SDS011;9760;50.944;5.304;2023-01-08T04:21:00;5.23;;;1.00;;
19251;SDS011;9760;50.944;5.304;2023-01-08T04:23:26;8.33;;;1.93;;
19251;SDS011;9760;50.944;5.304;2023-01-08T04:25:52;3.83;;;1.10;;
19251;SDS011;9760;50.944;5.304;2023-01-08T04:28:18;3.77;;;0.77;;
19251;SDS011;9760;50.944;5.304;2023-01-08T04:30:43;5.10;;;1.10;;
19251;SDS011;9760;50.944;5.304;2023-01-08T04:33:09;2.93;;;0.80;;
19251;SDS011;9760;50.944;5.304;2023-01-08T04:35:35;1.73;;;0.80;;
19251;SDS011;9760;50.944;5.304;2023-01-08T04:38:01;3.53;;;1.27;;
19251;SDS011;9760;50.944;5.304;2023-01-08T04:40:26;2.37;;;0.87;;
19251;SDS011;9760;50.944;5.304;2023-01-08T04:42:52;4.73;;;1.20;;
19251;SDS011;9760;50.944;5.304;2023-01-08T04:45:18;2.30;;;1.00;;
19251;SDS011;9760;50.944;5.304;2023-01-08T04:47:44;4.37;;;1.10;;
19251;SDS011;9760;50.944;5.304;2023-01-08T04:50:10;5.00;;;1.00;;
19251;SDS011;9760;50.944;5.304;2023-01-08T04:52:35;3.67;;;1.00;;
19251;SDS011;9760;50.944;5.304;2023-01-08T04:55:01;4.60;;;1.00;;
19251;SDS011;9760;50.944;5.304;2023-01-08T04:57:27;4.03;;;0.80;;
19251;SDS011;9760;50.944;5.304;2023-01-08T04:59:53;6.67;;;0.77;;
19251;SDS011;9760;50.944;5.304;2023-01-08T05:02:18;6.53;;;0.90;;
19251;SDS011;9760;50.944;5.304;2023-01-08T05:04:44;10.57;;;1.40;;
19251;SDS011;9760;50.944;5.304;2023-01-08T05:07:11;7.17;;;1.03;;
19251;SDS011;9760;50.944;5.304;2023-01-08T05:09:36;6.17;;;0.87;;
19251;SDS011;9760;50.944;5.304;2023-01-08T05:12:02;6.03;;;1.00;;
19251;SDS011;9760;50.944;5.304;2023-01-08T05:14:28;4.90;;;0.83;;
19251;SDS011;9760;50.944;5.304;2023-01-08T05:16:53;4.57;;;0.70;;
19251;SDS011;9760;50.944;5.304;2023-01-08T05:19:19;6.10;;;0.80;;
19251;SDS011;9760;50.944;5.304;2023-01-08T05:21:44;7.13;;;0.80;;
19251;SDS011;9760;50.944;5.304;2023-01-08T05:24:10;8.80;;;1.40;;
19251;SDS011;9760;50.944;5.304;2023-01-08T05:26:36;4.17;;;0.63;;
19251;SDS011;9760;50.944;5.304;2023-01-08T05:29:01;5.10;;;0.90;;
19251;SDS011;9760;50.944;5.304;2023-01-08T05:31:27;8.20;;;0.80;;
19251;SDS011;9760;50.944;5.304;2023-01-08T05:33:53;2.97;;;0.93;;
19251;SDS011;9760;50.944;5.304;2023-01-08T05:36:21;1.53;;;0.80;;
19251;SDS011;9760;50.944;5.304;2023-01-08T05:38:46;4.63;;;0.60;;
19251;SDS011;9760;50.944;5.304;2023-01-08T05:41:12;6.80;;;1.10;;
19251;SDS011;9760;50.944;5.304;2023-01-08T05:43:37;4.77;;;0.90;;
19251;SDS011;9760;50.944;5.304;2023-01-08T05:46:03;10.37;;;0.87;;
19251;SDS011;9760;50.944;5.304;2023-01-08T05:48:30;6.20;;;1.27;;
19251;SDS011;9760;50.944;5.304;2023-01-08T05:50:57;5.80;;;1.30;;
19251;SDS011;9760;50.944;5.304;2023-01-08T05:53:23;3.40;;;0.70;;
19251;SDS011;9760;50.944;5.304;2023-01-08T05:55:49;9.57;;;0.83;;
19251;SDS011;9760;50.944;5.304;2023-01-08T05:58:14;6.13;;;1.00;;
19251;SDS011;9760;50.944;5.304;2023-01-08T06:00:43;4.57;;;0.80;;
19251;SDS011;9760;50.944;5.304;2023-01-08T06:03:09;4.17;;;0.80;;
19251;SDS011;9760;50.944;5.304;2023-01-08T06:05:35;5.73;;;0.63;;
19251;SDS011;9760;50.944;5.304;2023-01-08T06:08:00;9.13;;;0.90;;
19251;SDS011;9760;50.944;5.304;2023-01-08T06:10:26;3.13;;;1.00;;
19251;SDS011;9760;50.944;5.304;2023-01-08T06:12:52;5.93;;;1.37;;
19251;SDS011;9760;50.944;5.304;2023-01-08T06:15:18;6.63;;;0.87;;
19251;SDS011;9760;50.944;5.304;2023-01-08T06:17:43;13.93;;;2.67;;
19251;SDS011;9760;50.944;5.304;2023-01-08T06:20:09;9.60;;;1.50;;
19251;SDS011;9760;50.944;5.304;2023-01-08T06:22:35;5.47;;;1.27;;
19251;SDS011;9760;50.944;5.304;2023-01-08T06:25:01;8.27;;;1.83;;
19251;SDS011;9760;50.944;5.304;2023-01-08T06:27:28;10.23;;;1.07;;
19251;SDS011;9760;50.944;5.304;2023-01-08T06:29:54;3.23;;;0.93;;
19251;SDS011;9760;50.944;5.304;2023-01-08T06:32:19;6.20;;;1.07;;
19251;SDS011;9760;50.944;5.304;2023-01-08T06:34:45;9.37;;;1.30;;
19251;SDS011;9760;50.944;5.304;2023-01-08T06:37:10;5.60;;;1.00;;
19251;SDS011;9760;50.944;5.304;2023-01-08T06:39:36;14.33;;;1.33;;
19251;SDS011;9760;50.944;5.304;2023-01-08T06:42:02;7.90;;;1.67;;
19251;SDS011;9760;50.944;5.304;2023-01-08T06:44:27;5.67;;;1.00;;
19251;SDS011;9760;50.944;5.304;2023-01-08T06:46:53;5.23;;;1.00;;
19251;SDS011;9760;50.944;5.304;2023-01-08T06:49:19;14.73;;;4.27;;
19251;SDS011;9760;50.944;5.304;2023-01-08T06:51:46;11.60;;;1.93;;
19251;SDS011;9760;50.944;5.304;2023-01-08T06:54:11;5.10;;;1.30;;
19251;SDS011;9760;50.944;5.304;2023-01-08T06:56:37;8.87;;;1.23;;
19251;SDS011;9760;50.944;5.304;2023-01-08T06:59:03;9.90;;;1.80;;
19251;SDS011;9760;50.944;5.304;2023-01-08T07:01:28;6.20;;;1.27;;
19251;SDS011;9760;50.944;5.304;2023-01-08T07:03:54;5.83;;;1.10;;
19251;SDS011;9760;50.944;5.304;2023-01-08T07:06:20;11.60;;;1.90;;
19251;SDS011;9760;50.944;5.304;2023-01-08T07:08:47;8.57;;;1.43;;
19251;SDS011;9760;50.944;5.304;2023-01-08T07:11:13;8.00;;;1.67;;
19251;SDS011;9760;50.944;5.304;2023-01-08T07:13:39;11.23;;;3.17;;
19251;SDS011;9760;50.944;5.304;2023-01-08T07:16:09;10.37;;;2.83;;
19251;SDS011;9760;50.944;5.304;2023-01-08T07:18:36;6.77;;;1.77;;
19251;SDS011;9760;50.944;5.304;2023-01-08T07:21:02;16.00;;;3.13;;
19251;SDS011;9760;50.944;5.304;2023-01-08T07:23:29;14.73;;;1.70;;
19251;SDS011;9760;50.944;5.304;2023-01-08T07:25:58;6.57;;;1.20;;
19251;SDS011;9760;50.944;5.304;2023-01-08T07:28:25;12.47;;;1.53;;
19251;SDS011;9760;50.944;5.304;2023-01-08T07:30:51;19.90;;;4.00;;
19251;SDS011;9760;50.944;5.304;2023-01-08T07:33:16;3.57;;;1.13;;
19251;SDS011;9760;50.944;5.304;2023-01-08T07:35:42;10.80;;;2.33;;
19251;SDS011;9760;50.944;5.304;2023-01-08T07:38:07;13.80;;;2.90;;
19251;SDS011;9760;50.944;5.304;2023-01-08T07:40:33;10.87;;;1.77;;
19251;SDS011;9760;50.944;5.304;2023-01-08T07:43:00;11.70;;;1.70;;
19251;SDS011;9760;50.944;5.304;2023-01-08T07:45:27;18.10;;;4.50;;
19251;SDS011;9760;50.944;5.304;2023-01-08T07:47:55;6.03;;;2.10;;
19251;SDS011;9760;50.944;5.304;2023-01-08T07:50:22;9.63;;;2.27;;
19251;SDS011;9760;50.944;5.304;2023-01-08T07:52:48;13.90;;;1.57;;
19251;SDS011;9760;50.944;5.304;2023-01-08T07:55:13;9.87;;;1.83;;
19251;SDS011;9760;50.944;5.304;2023-01-08T07:57:39;8.00;;;1.50;;
19251;SDS011;9760;50.944;5.304;2023-01-08T08:00:05;10.23;;;1.50;;
19251;SDS011;9760;50.944;5.304;2023-01-08T08:02:33;8.13;;;1.47;;
19251;SDS011;9760;50.944;5.304;2023-01-08T08:04:59;4.07;;;1.20;;
19251;SDS011;9760;50.944;5.304;2023-01-08T08:07:25;11.07;;;1.47;;
19251;SDS011;9760;50.944;5.304;2023-01-08T08:09:51;12.50;;;1.90;;
19251;SDS011;9760;50.944;5.304;2023-01-08T08:12:16;12.73;;;1.47;;
19251;SDS011;9760;50.944;5.304;2023-01-08T08:14:42;8.57;;;1.37;;
19251;SDS011;9760;50.944;5.304;2023-01-08T08:17:07;10.40;;;1.73;;
19251;SDS011;9760;50.944;5.304;2023-01-08T08:19:33;9.37;;;1.53;;
19251;SDS011;9760;50.944;5.304;2023-01-08T08:21:58;9.13;;;1.40;;
19251;SDS011;9760;50.944;5.304;2023-01-08T08:24:24;10.20;;;1.40;;
19251;SDS011;9760;50.944;5.304;2023-01-08T08:26:50;10.63;;;1.73;;
19251;SDS011;9760;50.944;5.304;2023-01-08T08:29:18;10.00;;;1.47;;
19251;SDS011;9760;50.944;5.304;2023-01-08T08:31:44;8.27;;;2.23;;
19251;SDS011;9760;50.944;5.304;2023-01-08T08:34:09;10.33;;;1.50;;
19251;SDS011;9760;50.944;5.304;2023-01-08T08:36:35;16.50;;;1.30;;
19251;SDS011;9760;50.944;5.304;2023-01-08T08:39:01;22.50;;;1.70;;
19251;SDS011;9760;50.944;5.304;2023-01-08T08:41:27;9.23;;;1.27;;
19251;SDS011;9760;50.944;5.304;2023-01-08T08:43:53;4.97;;;1.40;;
19251;SDS011;9760;50.944;5.304;2023-01-08T08:46:18;6.97;;;1.50;;
19251;SDS011;9760;50.944;5.304;2023-01-08T08:48:44;5.03;;;1.20;;
19251;SDS011;9760;50.944;5.304;2023-01-08T08:51:10;9.67;;;1.70;;
19251;SDS011;9760;50.944;5.304;2023-01-08T08:53:36;7.53;;;1.40;;
19251;SDS011;9760;50.944;5.304;2023-01-08T08:56:02;8.27;;;1.60;;
19251;SDS011;9760;50.944;5.304;2023-01-08T08:58:28;10.10;;;1.30;;
19251;SDS011;9760;50.944;5.304;2023-01-08T09:00:53;11.93;;;1.50;;
19251;SDS011;9760;50.944;5.304;2023-01-08T09:03:19;14.20;;;1.63;;
19251;SDS011;9760;50.944;5.304;2023-01-08T09:05:44;8.73;;;1.53;;
19251;SDS011;9760;50.944;5.304;2023-01-08T09:08:10;8.37;;;1.93;;
19251;SDS011;9760;50.944;5.304;2023-01-08T09:10:37;7.20;;;1.63;;
19251;SDS011;9760;50.944;5.304;2023-01-08T09:13:05;8.93;;;1.70;;
19251;SDS011;9760;50.944;5.304;2023-01-08T09:15:31;10.63;;;1.33;;
19251;SDS011;9760;50.944;5.304;2023-01-08T09:17:57;9.53;;;1.60;;
19251;SDS011;9760;50.944;5.304;2023-01-08T09:20:23;12.13;;;2.43;;
19251;SDS011;9760;50.944;5.304;2023-01-08T09:22:49;9.67;;;1.97;;
19251;SDS011;9760;50.944;5.304;2023-01-08T09:25:15;10.17;;;1.90;;
19251;SDS011;9760;50.944;5.304;2023-01-08T09:27:41;7.43;;;1.90;;
19251;SDS011;9760;50.944;5.304;2023-01-08T09:30:07;9.83;;;2.37;;
19251;SDS011;9760;50.944;5.304;2023-01-08T09:32:33;16.67;;;2.53;;
19251;SDS011;9760;50.944;5.304;2023-01-08T09:34:59;6.97;;;1.70;;
19251;SDS011;9760;50.944;5.304;2023-01-08T09:37:25;6.63;;;1.80;;
19251;SDS011;9760;50.944;5.304;2023-01-08T09:39:50;5.03;;;1.43;;
19251;SDS011;9760;50.944;5.304;2023-01-08T09:42:20;5.63;;;1.20;;
19251;SDS011;9760;50.944;5.304;2023-01-08T09:44:50;10.20;;;1.27;;
19251;SDS011;9760;50.944;5.304;2023-01-08T09:47:30;5.83;;;1.40;;
19251;SDS011;9760;50.944;5.304;2023-01-08T09:50:00;6.10;;;1.40;;
19251;SDS011;9760;50.944;5.304;2023-01-08T09:52:28;4.63;;;0.60;;
19251;SDS011;9760;50.944;5.304;2023-01-08T09:54:55;1.53;;;0.80;;
19251;SDS011;9760;50.944;5.304;2023-01-08T09:57:22;5.27;;;0.90;;
19251;SDS011;9760;50.944;5.304;2023-01-08T09:59:48;2.73;;;1.00;;
19251;SDS011;9760;50.944;5.304;2023-01-08T10:02:15;2.70;;;1.20;;
19251;SDS011;9760;50.944;5.304;2023-01-08T10:04:43;3.00;;;1.07;;
19251;SDS011;9760;50.944;5.304;2023-01-08T10:07:19;4.47;;;1.00;;
19251;SDS011;9760;50.944;5.304;2023-01-08T10:09:47;7.60;;;1.80;;
19251;SDS011;9760;50.944;5.304;2023-01-08T10:12:14;4.43;;;1.40;;
19251;SDS011;9760;50.944;5.304;2023-01-08T10:14:45;4.17;;;1.53;;
19251;SDS011;9760;50.944;5.304;2023-01-08T10:20:15;9.50;;;2.40;;
19251;SDS011;9760;50.944;5.304;2023-01-08T10:22:43;6.90;;;1.50;;
19251;SDS011;9760;50.944;5.304;2023-01-08T10:25:13;4.13;;;1.70;;
19251;SDS011;9760;50.944;5.304;2023-01-08T10:27:55;8.23;;;2.67;;
19251;SDS011;9760;50.944;5.304;2023-01-08T10:32:55;11.73;;;2.50;;
19251;SDS011;9760;50.944;5.304;2023-01-08T10:35:23;7.83;;;2.37;;
19251;SDS011;9760;50.944;5.304;2023-01-08T10:38:02;4.23;;;1.63;;
19251;SDS011;9760;50.944;5.304;2023-01-08T10:40:44;12.03;;;2.00;;
19251;SDS011;9760;50.944;5.304;2023-01-08T10:43:19;8.07;;;2.10;;
19251;SDS011;9760;50.944;5.304;2023-01-08T10:45:54;7.13;;;2.00;;
19251;SDS011;9760;50.944;5.304;2023-01-08T10:48:21;10.50;;;2.17;;
19251;SDS011;9760;50.944;5.304;2023-01-08T10:50:49;3.47;;;1.77;;
19251;SDS011;9760;50.944;5.304;2023-01-08T10:53:25;3.20;;;0.90;;
19251;SDS011;9760;50.944;5.304;2023-01-08T10:55:58;7.03;;;0.83;;
19251;SDS011;9760;50.944;5.304;2023-01-08T10:58:28;2.40;;;0.70;;
19251;SDS011;9760;50.944;5.304;2023-01-08T11:01:12;2.43;;;0.70;;
19251;SDS011;9760;50.944;5.304;2023-01-08T11:03:49;1.87;;;0.60;;
19251;SDS011;9760;50.944;5.304;2023-01-08T11:06:33;1.40;;;0.63;;
19251;SDS011;9760;50.944;5.304;2023-01-08T11:09:18;1.67;;;0.50;;
19251;SDS011;9760;50.944;5.304;2023-01-08T11:11:47;0.67;;;0.40;;
19251;SDS011;9760;50.944;5.304;2023-01-08T11:14:24;4.10;;;0.70;;
19251;SDS011;9760;50.944;5.304;2023-01-08T11:16:54;1.83;;;0.53;;
19251;SDS011;9760;50.944;5.304;2023-01-08T11:19:25;4.47;;;0.70;;
19251;SDS011;9760;50.944;5.304;2023-01-08T11:24:44;2.23;;;0.53;;
19251;SDS011;9760;50.944;5.304;2023-01-08T11:35:28;2.33;;;0.57;;
19251;SDS011;9760;50.944;5.304;2023-01-08T11:38:00;3.23;;;0.80;;
19251;SDS011;9760;50.944;5.304;2023-01-08T11:53:29;5.13;;;0.80;;
19251;SDS011;9760;50.944;5.304;2023-01-08T11:56:17;6.33;;;0.70;;
19251;SDS011;9760;50.944;5.304;2023-01-08T12:07:24;4.40;;;0.67;;
19251;SDS011;9760;50.944;5.304;2023-01-08T12:10:04;2.93;;;0.60;;
19251;SDS011;9760;50.944;5.304;2023-01-08T12:21:20;3.10;;;0.90;;
19251;SDS011;9760;50.944;5.304;2023-01-08T12:31:58;6.33;;;0.70;;
19251;SDS011;9760;50.944;5.304;2023-01-08T12:34:51;1.93;;;0.80;;
19251;SDS011;9760;50.944;5.304;2023-01-08T12:39:57;7.97;;;1.53;;
19251;SDS011;9760;50.944;5.304;2023-01-08T12:42:31;4.33;;;1.00;;
19251;SDS011;9760;50.944;5.304;2023-01-08T12:45:02;6.90;;;0.70;;
19251;SDS011;9760;50.944;5.304;2023-01-08T12:47:31;8.83;;;1.27;;
19251;SDS011;9760;50.944;5.304;2023-01-08T12:50:04;5.17;;;0.90;;
19251;SDS011;9760;50.944;5.304;2023-01-08T12:55:19;3.67;;;0.90;;
19251;SDS011;9760;50.944;5.304;2023-01-08T12:58:09;4.67;;;1.37;;
19251;SDS011;9760;50.944;5.304;2023-01-08T13:03:35;4.63;;;1.40;;
19251;SDS011;9760;50.944;5.304;2023-01-08T13:06:07;7.53;;;1.77;;
19251;SDS011;9760;50.944;5.304;2023-01-08T13:08:38;3.67;;;0.90;;
19251;SDS011;9760;50.944;5.304;2023-01-08T13:11:05;1.87;;;0.90;;
19251;SDS011;9760;50.944;5.304;2023-01-08T13:13:33;10.97;;;2.17;;
19251;SDS011;9760;50.944;5.304;2023-01-08T13:18:56;2.90;;;0.67;;
19251;SDS011;9760;50.944;5.304;2023-01-08T13:21:31;7.60;;;0.87;;
19251;SDS011;9760;50.944;5.304;2023-01-08T13:24:01;7.87;;;1.10;;
19251;SDS011;9760;50.944;5.304;2023-01-08T13:26:30;6.60;;;1.10;;
19251;SDS011;9760;50.944;5.304;2023-01-08T13:32:01;5.60;;;1.07;;
19251;SDS011;9760;50.944;5.304;2023-01-08T13:34:37;2.53;;;1.00;;
19251;SDS011;9760;50.944;5.304;2023-01-08T13:37:06;6.40;;;0.97;;
19251;SDS011;9760;50.944;5.304;2023-01-08T13:39:41;9.17;;;1.10;;
19251;SDS011;9760;50.944;5.304;2023-01-08T13:44:38;2.77;;;0.93;;
19251;SDS011;9760;50.944;5.304;2023-01-08T13:47:51;4.23;;;0.83;;
19251;SDS011;9760;50.944;5.304;2023-01-08T13:50:03;3.13;;;0.90;;
19251;SDS011;9760;50.944;5.304;2023-01-08T13:58:02;1.00;;;0.50;;
19251;SDS011;9760;50.944;5.304;2023-01-08T14:05:47;9.83;;;1.10;;
19251;SDS011;9760;50.944;5.304;2023-01-08T14:08:20;8.63;;;0.87;;
19251;SDS011;9760;50.944;5.304;2023-01-08T14:10:47;4.30;;;1.20;;
19251;SDS011;9760;50.944;5.304;2023-01-08T14:13:12;6.27;;;0.93;;
19251;SDS011;9760;50.944;5.304;2023-01-08T14:15:41;9.47;;;1.20;;
19251;SDS011;9760;50.944;5.304;2023-01-08T14:18:09;5.23;;;1.20;;
19251;SDS011;9760;50.944;5.304;2023-01-08T14:20:37;5.53;;;1.50;;
19251;SDS011;9760;50.944;5.304;2023-01-08T14:23:25;4.97;;;2.00;;
19251;SDS011;9760;50.944;5.304;2023-01-08T14:25:53;4.47;;;1.37;;
19251;SDS011;9760;50.944;5.304;2023-01-08T14:28:27;3.17;;;1.00;;
19251;SDS011;9760;50.944;5.304;2023-01-08T14:30:54;2.90;;;1.17;;
19251;SDS011;9760;50.944;5.304;2023-01-08T14:33:25;4.73;;;1.00;;
19251;SDS011;9760;50.944;5.304;2023-01-08T14:36:01;7.10;;;1.30;;
19251;SDS011;9760;50.944;5.304;2023-01-08T14:38:28;3.43;;;1.27;;
19251;SDS011;9760;50.944;5.304;2023-01-08T14:41:12;8.97;;;1.73;;
19251;SDS011;9760;50.944;5.304;2023-01-08T14:43:40;4.97;;;1.57;;
19251;SDS011;9760;50.944;5.304;2023-01-08T14:46:18;5.73;;;1.43;;
19251;SDS011;9760;50.944;5.304;2023-01-08T14:48:51;7.33;;;1.60;;
19251;SDS011;9760;50.944;5.304;2023-01-08T14:51:21;8.80;;;2.00;;
19251;SDS011;9760;50.944;5.304;2023-01-08T14:53:54;10.47;;;2.13;;
19251;SDS011;9760;50.944;5.304;2023-01-08T14:56:27;3.80;;;1.47;;
19251;SDS011;9760;50.944;5.304;2023-01-08T14:58:57;7.73;;;1.60;;
19251;SDS011;9760;50.944;5.304;2023-01-08T15:01:24;2.70;;;0.80;;
19251;SDS011;9760;50.944;5.304;2023-01-08T15:04:03;5.53;;;1.73;;
19251;SDS011;9760;50.944;5.304;2023-01-08T15:06:38;7.20;;;1.40;;
19251;SDS011;9760;50.944;5.304;2023-01-08T15:09:14;2.57;;;1.00;;
19251;SDS011;9760;50.944;5.304;2023-01-08T15:11:55;4.20;;;0.90;;
19251;SDS011;9760;50.944;5.304;2023-01-08T15:14:24;3.13;;;0.80;;
19251;SDS011;9760;50.944;5.304;2023-01-08T15:16:52;6.00;;;0.80;;
19251;SDS011;9760;50.944;5.304;2023-01-08T15:19:24;3.63;;;1.20;;
19251;SDS011;9760;50.944;5.304;2023-01-08T15:21:53;5.53;;;1.00;;
19251;SDS011;9760;50.944;5.304;2023-01-08T15:24:28;4.60;;;1.00;;
19251;SDS011;9760;50.944;5.304;2023-01-08T15:26:54;1.20;;;0.70;;
19251;SDS011;9760;50.944;5.304;2023-01-08T15:29:26;6.10;;;1.20;;
19251;SDS011;9760;50.944;5.304;2023-01-08T15:32:10;4.57;;;1.00;;
19251;SDS011;9760;50.944;5.304;2023-01-08T15:34:39;6.03;;;1.07;;
19251;SDS011;9760;50.944;5.304;2023-01-08T15:37:05;2.93;;;1.00;;
19251;SDS011;9760;50.944;5.304;2023-01-08T15:39:31;4.47;;;1.57;;
19251;SDS011;9760;50.944;5.304;2023-01-08T15:41:59;2.50;;;0.90;;
19251;SDS011;9760;50.944;5.304;2023-01-08T15:44:45;4.43;;;1.40;;
19251;SDS011;9760;50.944;5.304;2023-01-08T15:47:11;5.60;;;1.47;;
19251;SDS011;9760;50.944;5.304;2023-01-08T15:49:37;4.83;;;1.50;;
19251;SDS011;9760;50.944;5.304;2023-01-08T15:52:03;6.40;;;1.20;;
19251;SDS011;9760;50.944;5.304;2023-01-08T15:54:29;4.10;;;1.20;;
19251;SDS011;9760;50.944;5.304;2023-01-08T15:56:54;4.10;;;1.07;;
19251;SDS011;9760;50.944;5.304;2023-01-08T15:59:20;8.77;;;1.40;;
19251;SDS011;9760;50.944;5.304;2023-01-08T16:01:45;4.23;;;1.47;;
19251;SDS011;9760;50.944;5.304;2023-01-08T16:04:11;5.37;;;1.40;;
19251;SDS011;9760;50.944;5.304;2023-01-08T16:06:37;2.97;;;1.20;;
19251;SDS011;9760;50.944;5.304;2023-01-08T16:09:02;3.27;;;1.20;;
19251;SDS011;9760;50.944;5.304;2023-01-08T16:11:28;6.63;;;1.30;;
19251;SDS011;9760;50.944;5.304;2023-01-08T16:13:54;2.00;;;1.00;;
19251;SDS011;9760;50.944;5.304;2023-01-08T16:16:19;7.40;;;1.20;;
19251;SDS011;9760;50.944;5.304;2023-01-08T16:18:46;8.63;;;1.30;;
19251;SDS011;9760;50.944;5.304;2023-01-08T16:21:11;4.17;;;0.90;;
19251;SDS011;9760;50.944;5.304;2023-01-08T16:23:38;7.47;;;1.27;;
19251;SDS011;9760;50.944;5.304;2023-01-08T16:26:08;9.30;;;2.63;;
19251;SDS011;9760;50.944;5.304;2023-01-08T16:28:35;4.50;;;1.57;;
19251;SDS011;9760;50.944;5.304;2023-01-08T16:31:01;3.83;;;1.10;;
19251;SDS011;9760;50.944;5.304;2023-01-08T16:33:27;3.90;;;1.00;;
19251;SDS011;9760;50.944;5.304;2023-01-08T16:35:57;4.13;;;1.13;;
19251;SDS011;9760;50.944;5.304;2023-01-08T16:38:24;9.03;;;2.07;;
19251;SDS011;9760;50.944;5.304;2023-01-08T16:40:50;2.97;;;0.70;;
19251;SDS011;9760;50.944;5.304;2023-01-08T16:43:16;4.13;;;0.90;;
19251;SDS011;9760;50.944;5.304;2023-01-08T16:45:45;6.53;;;1.10;;
19251;SDS011;9760;50.944;5.304;2023-01-08T16:48:11;5.50;;;1.13;;
19251;SDS011;9760;50.944;5.304;2023-01-08T16:50:38;6.97;;;0.97;;
19251;SDS011;9760;50.944;5.304;2023-01-08T16:53:04;5.47;;;1.37;;
19251;SDS011;9760;50.944;5.304;2023-01-08T16:55:30;3.00;;;0.90;;
19251;SDS011;9760;50.944;5.304;2023-01-08T16:57:56;2.67;;;1.23;;